Time;durP1;ratioP1;P1;durP2;ratioP2;P2;SDS_P1;SDS_P2;PMS_P1;PMS_P2;Temp;Humidity;BMP_temperature;BMP_pressure;BME280_temperature;BME280_humidity;BME280_pressure;Samples;Min_cycle;Max_cycle;Signal;HPM_P1;HPM_P2
2023/08/06 00:00:52;;;;;;;15.60;11.00;;;;;;;34.55;37.79;99724.70;112244;1232;58246;-96
2023/08/06 00:03:40;;;;;;;17.90;12.10;;;;;;;34.65;37.53;99720.11;111641;1232;59137;-96
2023/08/06 00:10:05;;;;;;;14.10;10.60;;;;;;;34.71;37.50;99707.95;112174;1233;60984;-95
2023/08/06 00:13:03;;;;;;;16.50;11.10;;;;;;;34.66;37.53;99705.14;112265;1233;62700;-95
2023/08/06 00:15:51;;;;;;;16.80;11.50;;;;;;;34.38;37.81;99705.19;112486;1235;56869;-95
2023/08/06 00:19:02;;;;;;;19.00;11.50;;;;;;;33.87;38.76;99698.59;112166;1234;57133;-94
2023/08/06 00:22:01;;;;;;;12.90;10.10;;;;;;;34.04;38.60;99694.33;112345;1234;62902;-94
2023/08/06 00:25:06;;;;;;;14.80;11.10;;;;;;;34.14;38.34;99692.14;112128;1235;60930;-94
2023/08/06 00:28:38;;;;;;;12.80;10.70;;;;;;;33.90;38.71;99693.69;112412;1235;63020;-93
2023/08/06 00:31:49;;;;;;;14.00;11.00;;;;;;;34.01;38.46;99691.73;112240;1234;56954;-95
2023/08/06 00:35:13;;;;;;;13.70;10.20;;;;;;;34.44;37.82;99692.45;112180;1234;57127;-95
2023/08/06 00:38:19;;;;;;;13.30;11.00;;;;;;;34.49;37.60;99697.48;112089;1234;65906;-95
2023/08/06 00:42:31;;;;;;;14.40;11.10;;;;;;;34.36;37.93;99691.19;106887;1281;604618;-96
2023/08/06 00:45:29;;;;;;;13.90;11.60;;;;;;;34.15;38.17;99684.63;108477;1265;56823;-96
2023/08/06 00:48:33;;;;;;;12.70;11.20;;;;;;;34.06;38.13;99688.38;108782;1258;60718;-95
2023/08/06 00:51:35;;;;;;;15.20;12.10;;;;;;;34.22;38.07;99686.52;108508;1260;62626;-95
2023/08/06 00:54:53;;;;;;;17.50;11.50;;;;;;;33.90;38.62;99675.53;104713;1257;5134216;-96
2023/08/06 00:57:56;;;;;;;16.00;12.00;;;;;;;33.38;39.40;99679.66;108681;1257;65238;-96
2023/08/06 01:01:11;;;;;;;15.30;12.20;;;;;;;33.28;39.70;99678.48;108712;1259;58832;-95
2023/08/06 01:04:07;;;;;;;15.90;11.50;;;;;;;33.18;39.82;99678.67;108717;1255;58739;-96
2023/08/06 01:07:24;;;;;;;13.40;11.20;;;;;;;33.45;39.46;99677.10;109555;1253;65321;-95
2023/08/06 01:10:57;;;;;;;14.80;11.80;;;;;;;33.48;39.36;99674.83;109611;1253;60472;-95
2023/08/06 01:14:38;;;;;;;17.80;12.30;;;;;;;32.98;40.18;99672.29;109621;1255;72525;-95
2023/08/06 01:18:15;;;;;;;18.50;11.40;;;;;;;32.95;40.30;99668.83;108957;1258;61140;-94
2023/08/06 01:21:23;;;;;;;15.00;12.40;;;;;;;32.92;40.34;99668.02;108480;1259;62101;-95
2023/08/06 01:24:35;;;;;;;16.90;12.40;;;;;;;33.09;40.14;99664.60;108684;1258;73833;-95
2023/08/06 01:27:34;;;;;;;16.80;12.20;;;;;;;32.99;40.34;99664.23;108348;1259;59857;-96
2023/08/06 01:30:35;;;;;;;17.40;12.50;;;;;;;32.99;40.29;99664.63;108969;1258;63187;-95
2023/08/06 01:33:37;;;;;;;14.80;12.10;;;;;;;32.88;40.48;99666.41;108182;1259;59745;-95
2023/08/06 01:36:16;;;;;;;17.30;11.80;;;;;;;33.06;40.21;99663.95;108519;1259;60584;-96
2023/08/06 01:39:15;;;;;;;16.50;12.90;;;;;;;32.99;40.26;99661.10;108866;1258;64100;-96
2023/08/06 01:42:01;;;;;;;15.40;12.70;;;;;;;32.82;40.61;99659.66;108815;1260;68014;-96
2023/08/06 01:44:51;;;;;;;15.80;12.10;;;;;;;32.86;40.63;99657.90;108558;1257;64790;-96
2023/08/06 01:47:41;;;;;;;12.90;11.40;;;;;;;32.77;40.71;99655.61;108253;1259;63916;-96
2023/08/06 01:50:32;;;;;;;18.70;12.90;;;;;;;32.70;40.81;99654.86;108315;1259;60494;-95
2023/08/06 01:53:21;;;;;;;15.70;12.10;;;;;;;32.78;40.74;99654.18;108321;1258;72918;-96
2023/08/06 01:56:02;;;;;;;17.20;13.20;;;;;;;32.79;40.74;99652.59;108619;1254;60034;-96
2023/08/06 01:58:41;;;;;;;19.30;12.40;;;;;;;32.74;40.79;99650.79;108602;1254;72432;-95
2023/08/06 02:01:44;;;;;;;22.40;12.80;;;;;;;32.35;41.40;99646.82;108508;1254;62755;-96
2023/08/06 02:04:33;;;;;;;16.50;12.50;;;;;;;32.46;41.26;99642.04;108278;1259;59251;-96
2023/08/06 02:07:37;;;;;;;13.90;12.10;;;;;;;32.56;41.14;99641.35;108350;1254;63330;-96
2023/08/06 02:10:38;;;;;;;17.80;13.10;;;;;;;32.54;41.07;99634.05;108236;1254;59760;-94
2023/08/06 02:13:25;;;;;;;18.30;12.20;;;;;;;32.44;41.31;99633.33;108563;1254;62650;-96
2023/08/06 02:16:18;;;;;;;16.00;12.40;;;;;;;32.27;41.67;99637.33;109077;1254;61861;-95
2023/08/06 02:19:12;;;;;;;17.10;12.70;;;;;;;32.42;41.41;99642.38;109006;1254;62047;-94
2023/08/06 02:22:10;;;;;;;19.00;13.60;;;;;;;32.30;41.56;99640.80;109522;1254;72130;-96
2023/08/06 02:24:58;;;;;;;15.40;13.00;;;;;;;32.15;41.88;99643.36;109267;1254;68806;-95
2023/08/06 02:28:03;;;;;;;19.20;12.90;;;;;;;32.29;41.52;99644.23;109253;1254;73592;-96
2023/08/06 02:30:53;;;;;;;14.50;12.40;;;;;;;32.28;41.65;99642.52;109359;1254;60775;-94
2023/08/06 02:33:43;;;;;;;19.70;13.80;;;;;;;32.27;41.65;99645.36;109489;1254;57051;-93
2023/08/06 02:36:41;;;;;;;16.30;12.40;;;;;;;32.32;41.63;99648.71;108556;1255;71706;-95
2023/08/06 02:39:33;;;;;;;18.20;12.50;;;;;;;32.24;41.64;99649.44;108369;1254;68627;-96
2023/08/06 02:42:18;;;;;;;18.20;13.30;;;;;;;32.25;41.74;99649.52;109191;1254;64651;-96
2023/08/06 02:45:15;;;;;;;15.00;12.80;;;;;;;32.28;41.56;99648.73;109131;1255;60574;-94
2023/08/06 02:48:12;;;;;;;17.50;13.00;;;;;;;32.23;41.74;99649.52;109296;1257;59296;-94
2023/08/06 02:51:05;;;;;;;15.70;13.30;;;;;;;32.48;41.37;99650.60;109481;1254;71693;-94
2023/08/06 02:53:49;;;;;;;17.80;12.60;;;;;;;32.45;41.29;99648.54;109405;1254;67816;-95
2023/08/06 02:56:46;;;;;;;16.40;12.60;;;;;;;32.44;41.40;99650.17;109288;1252;86691;-70
2023/08/06 02:59:18;;;;;;;17.50;12.30;;;;;;;32.44;41.36;99652.27;107961;1254;61844;-70
2023/08/06 03:02:02;;;;;;;17.50;13.40;;;;;;;32.53;41.21;99647.66;108029;1254;60090;-69
2023/08/06 03:04:38;;;;;;;18.50;12.30;;;;;;;32.53;41.17;99642.93;108048;1259;72822;-69
2023/08/06 03:07:05;;;;;;;16.50;13.40;;;;;;;32.62;41.08;99644.64;108017;1254;70199;-70
2023/08/06 03:09:38;;;;;;;17.70;12.60;;;;;;;32.60;40.97;99645.45;107966;1254;72649;-70
2023/08/06 03:12:05;;;;;;;18.40;12.50;;;;;;;32.55;41.05;99644.10;108013;1254;61864;-69
2023/08/06 03:14:32;;;;;;;14.40;12.40;;;;;;;32.72;40.84;99641.73;108005;1259;59329;-69
2023/08/06 03:16:59;;;;;;;18.80;12.90;;;;;;;32.72;40.74;99644.70;107993;1254;64246;-71
2023/08/06 03:19:25;;;;;;;18.90;13.50;;;;;;;32.70;40.83;99646.11;108038;1254;70146;-69
2023/08/06 03:21:53;;;;;;;17.80;13.30;;;;;;;32.66;40.80;99643.67;107994;1259;73511;-70
2023/08/06 03:24:21;;;;;;;18.90;13.90;;;;;;;32.70;40.84;99638.55;107997;1255;59489;-69
2023/08/06 03:26:48;;;;;;;15.80;12.20;;;;;;;32.91;40.54;99635.27;108067;1254;59142;-74
2023/08/06 03:29:14;;;;;;;15.80;12.30;;;;;;;33.04;40.33;99635.74;108006;1254;73305;-70
2023/08/06 03:31:41;;;;;;;14.40;12.50;;;;;;;33.27;39.81;99635.49;108015;1254;61832;-69
2023/08/06 03:34:09;;;;;;;15.30;12.60;;;;;;;33.47;39.36;99630.53;108068;1254;64075;-70
2023/08/06 03:36:35;;;;;;;17.60;12.70;;;;;;;33.67;39.10;99630.52;108044;1254;59611;-70
2023/08/06 03:39:02;;;;;;;14.50;12.60;;;;;;;33.80;38.70;99630.89;108043;1254;59558;-71
2023/08/06 03:41:29;;;;;;;16.30;11.70;;;;;;;34.14;38.19;99633.85;108074;1254;64622;-68
2023/08/06 03:43:56;;;;;;;16.90;12.10;;;;;;;34.37;37.93;99628.04;107908;1254;61615;-70
2023/08/06 03:46:25;;;;;;;15.30;12.20;;;;;;;34.38;37.51;99630.08;108030;1254;63944;-72
2023/08/06 03:48:53;;;;;;;18.20;12.30;;;;;;;34.52;37.27;99632.39;108031;1254;59490;-70
2023/08/06 03:51:19;;;;;;;16.50;11.80;;;;;;;35.07;36.48;99626.46;108011;1255;59522;-70
2023/08/06 03:53:46;;;;;;;13.80;10.60;;;;;;;35.30;35.80;99623.09;108044;1259;64218;-70
2023/08/06 03:56:13;;;;;;;15.20;11.60;;;;;;;35.28;35.79;99619.49;107804;1260;61675;-71
2023/08/06 03:58:39;;;;;;;15.70;11.30;;;;;;;35.45;35.81;99617.92;107977;1256;63711;-71
2023/08/06 04:01:07;;;;;;;16.50;11.40;;;;;;;35.59;35.66;99618.36;107959;1255;59528;-71
2023/08/06 04:03:38;;;;;;;16.20;11.40;;;;;;;35.83;35.02;99615.02;108015;1255;59650;-69
2023/08/06 04:06:04;;;;;;;13.30;11.80;;;;;;;35.98;35.01;99613.14;108040;1256;59680;-71
2023/08/06 04:08:31;;;;;;;14.80;10.70;;;;;;;36.49;34.00;99610.17;108026;1256;61686;-72
2023/08/06 04:10:58;;;;;;;16.00;11.30;;;;;;;36.74;33.43;99608.88;108011;1256;62785;-70
2023/08/06 04:13:27;;;;;;;17.50;11.10;;;;;;;36.88;33.36;99608.35;107954;1256;59488;-70
2023/08/06 04:16:00;;;;;;;17.90;11.10;;;;;;;36.99;33.19;99607.05;107967;1256;59634;-71
2023/08/06 04:18:27;;;;;;;18.80;11.00;;;;;;;36.88;33.02;99607.70;107813;1256;63072;-69
2023/08/06 04:20:57;;;;;;;17.50;11.40;;;;;;;36.80;33.27;99610.54;108010;1256;61524;-72
2023/08/06 04:23:24;;;;;;;16.80;11.20;;;;;;;36.94;33.16;99608.54;107906;1257;63845;-71
2023/08/06 04:25:51;;;;;;;17.70;11.40;;;;;;;37.38;32.68;99605.41;107951;1256;59613;-70
2023/08/06 04:28:17;;;;;;;14.10;11.00;;;;;;;37.72;32.23;99604.91;107767;1257;59906;-71
2023/08/06 04:30:44;;;;;;;14.00;10.90;;;;;;;37.98;31.77;99609.05;107982;1256;64455;-71
2023/08/06 04:33:11;;;;;;;15.00;10.70;;;;;;;38.12;31.47;99604.90;107972;1256;69390;-72
2023/08/06 04:35:38;;;;;;;14.00;10.60;;;;;;;38.31;31.24;99604.77;107995;1255;64025;-71
2023/08/06 04:38:04;;;;;;;15.00;10.40;;;;;;;38.44;31.17;99597.81;107998;1259;59162;-71
2023/08/06 04:40:34;;;;;;;14.60;10.80;;;;;;;38.75;30.69;99595.89;107966;1256;59615;-70
2023/08/06 04:43:00;;;;;;;13.10;10.40;;;;;;;38.92;30.48;99592.31;107866;1260;63233;-72
2023/08/06 04:45:28;;;;;;;16.30;10.90;;;;;;;39.02;30.18;99591.91;108001;1256;61503;-70
2023/08/06 04:47:54;;;;;;;12.20;10.80;;;;;;;39.09;30.18;99587.30;108010;1255;63857;-71
2023/08/06 04:50:21;;;;;;;14.50;10.70;;;;;;;39.16;30.26;99586.28;107946;1256;59965;-71
2023/08/06 04:52:48;;;;;;;14.90;10.10;;;;;;;39.47;29.83;99584.27;107990;1256;59638;-70
2023/08/06 04:55:14;;;;;;;12.80;9.80;;;;;;;39.51;29.90;99583.87;107958;1259;64457;-70
2023/08/06 04:57:41;;;;;;;11.40;10.20;;;;;;;39.48;29.29;99580.05;107939;1256;61745;-71
2023/08/06 05:00:08;;;;;;;11.20;9.30;;;;;;;39.82;29.05;99577.06;107781;1256;64011;-72
2023/08/06 05:02:34;;;;;;;12.10;9.20;;;;;;;39.91;29.01;99569.81;107757;1260;59554;-71
2023/08/06 05:05:01;;;;;;;13.60;9.70;;;;;;;39.91;28.63;99565.51;107815;1257;59650;-70
2023/08/06 05:07:28;;;;;;;13.00;9.90;;;;;;;39.85;28.52;99566.11;107853;1256;64347;-70
2023/08/06 05:09:54;;;;;;;14.30;9.70;;;;;;;39.86;28.55;99562.43;107825;1256;61674;-69
2023/08/06 05:12:21;;;;;;;12.90;9.10;;;;;;;39.97;28.52;99560.65;107793;1256;64081;-70
2023/08/06 05:14:47;;;;;;;15.20;9.30;;;;;;;40.13;28.30;99555.86;107822;1256;60420;-72
2023/08/06 05:17:14;;;;;;;13.20;10.60;;;;;;;40.44;28.18;99552.82;107801;1256;59817;-71
2023/08/06 05:19:40;;;;;;;12.10;9.30;;;;;;;40.76;27.90;99549.45;107766;1259;59284;-71
2023/08/06 05:22:07;;;;;;;13.20;9.30;;;;;;;41.01;27.42;99544.73;107786;1256;61126;-70
2023/08/06 05:24:33;;;;;;;11.00;9.40;;;;;;;41.26;26.91;99546.26;107783;1256;64101;-70
2023/08/06 05:27:00;;;;;;;12.90;9.50;;;;;;;41.49;26.76;99545.69;107887;1256;59577;-71
2023/08/06 05:29:27;;;;;;;12.80;8.80;;;;;;;41.89;26.30;99544.65;107944;1259;60585;-70
2023/08/06 05:31:53;;;;;;;11.90;9.10;;;;;;;41.87;26.08;99547.04;107922;1255;60328;-70
2023/08/06 05:34:20;;;;;;;12.30;8.60;;;;;;;42.03;25.84;99545.81;107869;1257;61754;-69
2023/08/06 05:36:47;;;;;;;9.30;8.30;;;;;;;42.33;25.26;99547.21;107861;1256;63722;-70
2023/08/06 05:39:14;;;;;;;11.00;8.70;;;;;;;42.56;24.91;99545.44;107888;1256;60342;-69
2023/08/06 05:41:40;;;;;;;8.90;7.50;;;;;;;42.72;24.74;99539.17;107780;1256;60378;-69
2023/08/06 05:44:07;;;;;;;10.30;8.20;;;;;;;42.78;24.31;99539.16;107897;1255;65557;-71
2023/08/06 05:46:33;;;;;;;9.40;7.80;;;;;;;42.93;24.24;99530.40;107918;1256;62586;-70
2023/08/06 05:49:00;;;;;;;12.70;8.40;;;;;;;43.11;24.58;99522.70;107952;1256;63968;-70
2023/08/06 05:51:27;;;;;;;9.00;7.30;;;;;;;43.40;24.28;99520.15;107912;1256;60213;-70
2023/08/06 05:53:54;;;;;;;13.20;7.70;;;;;;;43.04;24.36;99522.30;107930;1256;60338;-72
2023/08/06 05:56:20;;;;;;;17.70;8.30;;;;;;;42.95;24.45;99518.37;107895;1256;63853;-71
2023/08/06 05:58:47;;;;;;;11.00;7.50;;;;;;;43.14;24.56;99516.60;107865;1256;60328;-72
2023/08/06 06:01:14;;;;;;;15.40;7.80;;;;;;;43.67;23.97;99510.89;107823;1256;64205;-71
2023/08/06 06:03:40;;;;;;;12.30;7.30;;;;;;;43.76;23.66;99506.50;107858;1256;60310;-71
2023/08/06 06:06:07;;;;;;;10.00;7.50;;;;;;;43.63;23.71;99501.07;107909;1256;60288;-71
2023/08/06 06:08:34;;;;;;;10.70;7.30;;;;;;;43.35;23.92;99499.22;107888;1256;64952;-71
2023/08/06 06:11:00;;;;;;;8.70;7.40;;;;;;;43.43;23.87;99496.30;107953;1256;60430;-70
2023/08/06 06:13:27;;;;;;;13.20;7.50;;;;;;;43.54;23.60;99494.82;107940;1255;64083;-71
2023/08/06 06:15:56;;;;;;;15.50;7.60;;;;;;;43.46;23.73;99493.38;107921;1256;60208;-73
2023/08/06 06:18:23;;;;;;;8.50;7.50;;;;;;;43.25;24.36;99493.20;107986;1255;59129;-71
2023/08/06 06:20:49;;;;;;;12.10;7.30;;;;;;;43.46;24.00;99491.05;107911;1255;65274;-71
2023/08/06 06:23:16;;;;;;;9.40;7.00;;;;;;;43.84;23.43;99485.90;107789;1257;61947;-72
2023/08/06 06:25:44;;;;;;;11.00;7.30;;;;;;;44.09;23.19;99481.84;107955;1255;64351;-71
2023/08/06 06:28:10;;;;;;;15.50;7.30;;;;;;;44.21;22.95;99481.59;107838;1257;60854;-72
2023/08/06 06:30:37;;;;;;;9.70;7.00;;;;;;;44.09;23.15;99480.23;107989;1256;60351;-72
2023/08/06 06:33:03;;;;;;;10.40;6.80;;;;;;;43.75;23.36;99477.83;108050;1254;65279;-73
2023/08/06 06:35:30;;;;;;;12.70;6.90;;;;;;;43.22;23.78;99475.60;108004;1255;61488;-72
2023/08/06 06:37:56;;;;;;;10.90;6.90;;;;;;;43.09;23.94;99467.70;107980;1255;60537;-72
2023/08/06 06:40:23;;;;;;;9.60;6.70;;;;;;;43.23;23.74;99465.66;107976;1256;60695;-71
2023/08/06 06:42:49;;;;;;;8.90;6.70;;;;;;;43.51;23.46;99466.39;107992;1256;60349;-71
2023/08/06 06:45:16;;;;;;;12.50;6.40;;;;;;;43.91;22.94;99468.42;107949;1257;60469;-71
2023/08/06 06:47:42;;;;;;;9.70;6.60;;;;;;;44.42;23.05;99465.75;107987;1256;59150;-70
2023/08/06 06:50:09;;;;;;;11.80;7.40;;;;;;;44.69;22.74;99461.13;107950;1255;60425;-72
2023/08/06 06:52:35;;;;;;;10.40;7.10;;;;;;;45.16;22.48;99454.18;107971;1255;60451;-73
2023/08/06 06:55:02;;;;;;;8.40;6.40;;;;;;;45.38;22.18;99447.66;107980;1256;59108;-75
2023/08/06 06:57:29;;;;;;;10.90;6.50;;;;;;;45.12;21.99;99448.22;107860;1256;65610;-73
2023/08/06 06:59:55;;;;;;;11.70;6.50;;;;;;;44.92;22.29;99440.54;107961;1256;60433;-70
2023/08/06 07:02:22;;;;;;;11.50;6.60;;;;;;;44.90;22.21;99438.90;107920;1255;59926;-72
2023/08/06 07:04:49;;;;;;;10.20;6.50;;;;;;;44.80;22.09;99437.09;107941;1257;60379;-72
2023/08/06 07:07:16;;;;;;;9.10;5.90;;;;;;;44.58;22.26;99431.30;107958;1255;60340;-73
2023/08/06 07:09:42;;;;;;;9.90;6.00;;;;;;;44.65;22.47;99425.25;108009;1256;60439;-73
2023/08/06 07:12:09;;;;;;;7.90;6.70;;;;;;;44.63;22.24;99422.13;107944;1255;60267;-73
2023/08/06 07:14:35;;;;;;;11.20;6.80;;;;;;;44.62;22.20;99412.36;107941;1257;60499;-73
2023/08/06 07:17:02;;;;;;;35.30;7.50;;;;;;;44.70;22.20;99411.23;107982;1258;60456;-72
2023/08/06 07:19:29;;;;;;;15.80;7.10;;;;;;;44.92;22.01;99410.13;107977;1254;60310;-71
2023/08/06 07:21:55;;;;;;;13.60;6.10;;;;;;;45.04;21.79;99405.52;108009;1256;63920;-71
2023/08/06 07:24:23;;;;;;;12.30;6.70;;;;;;;45.11;21.88;99405.35;108066;1256;61607;-70
2023/08/06 07:26:49;;;;;;;12.20;6.10;;;;;;;45.05;21.98;99402.27;107947;1256;60421;-72
2023/08/06 07:29:20;;;;;;;11.50;6.90;;;;;;;45.10;22.01;99403.04;107941;1256;60432;-71
2023/08/06 07:31:47;;;;;;;15.80;6.70;;;;;;;45.01;22.00;99395.56;107728;1262;60377;-73
2023/08/06 07:34:14;;;;;;;12.50;6.10;;;;;;;45.09;21.90;99397.31;107895;1257;63766;-74
2023/08/06 07:36:43;;;;;;;21.70;6.50;;;;;;;44.75;22.09;99393.94;108000;1256;60313;-74
2023/08/06 07:40:14;;;;;;;12.60;6.80;;;;;;;42.27;25.30;99387.46;104849;1290;605226;-71
2023/08/06 07:42:41;;;;;;;9.50;6.40;;;;;;;44.35;23.06;99381.91;107366;1263;59124;-71
2023/08/06 07:45:09;;;;;;;12.00;6.10;;;;;;;44.42;22.75;99381.33;107419;1263;59218;-70
2023/08/06 07:47:35;;;;;;;12.00;6.40;;;;;;;44.36;22.75;99380.77;107423;1264;63442;-72
2023/08/06 07:50:02;;;;;;;13.60;6.60;;;;;;;44.50;22.81;99378.94;107380;1264;61522;-73
2023/08/06 07:52:29;;;;;;;18.10;6.70;;;;;;;44.68;22.79;99381.62;107167;1261;281363;-70
2023/08/06 07:54:55;;;;;;;12.50;6.30;;;;;;;45.06;22.32;99379.04;107465;1264;59259;-73
2023/08/06 07:57:22;;;;;;;9.30;6.60;;;;;;;45.22;22.36;99376.33;107509;1262;59618;-72
2023/08/06 07:59:48;;;;;;;11.40;6.60;;;;;;;45.47;21.96;99377.38;107412;1264;63349;-74
2023/08/06 08:02:15;;;;;;;12.40;6.70;;;;;;;45.64;21.68;99368.05;107512;1264;61510;-73
2023/08/06 08:04:41;;;;;;;12.10;6.10;;;;;;;45.63;21.61;99356.39;107443;1264;63875;-73
2023/08/06 08:07:09;;;;;;;13.50;6.20;;;;;;;45.32;21.99;99357.02;107434;1266;59126;-73
2023/08/06 08:09:37;;;;;;;13.00;6.00;;;;;;;45.21;21.94;99360.73;107459;1262;59551;-72
2023/08/06 08:12:04;;;;;;;12.80;7.10;;;;;;;45.17;22.38;99353.67;107536;1263;64070;-72
2023/08/06 08:14:35;;;;;;;13.50;6.60;;;;;;;45.12;22.39;99352.58;107453;1264;61896;-74
2023/08/06 08:17:03;;;;;;;8.20;5.80;;;;;;;45.21;22.43;99344.86;107454;1263;63862;-72
2023/08/06 08:19:30;;;;;;;17.90;6.40;;;;;;;45.44;22.20;99340.73;107468;1266;59496;-71
2023/08/06 08:21:57;;;;;;;13.00;6.20;;;;;;;45.35;22.25;99344.31;107604;1260;59579;-72
2023/08/06 08:24:26;;;;;;;12.30;6.10;;;;;;;45.15;22.50;99340.65;107538;1260;63001;-72
2023/08/06 08:26:53;;;;;;;22.30;6.90;;;;;;;45.06;22.23;99333.47;108252;1251;61409;-69
2023/08/06 08:29:19;;;;;;;12.80;6.30;;;;;;;45.08;22.39;99331.36;108222;1251;64216;-73
2023/08/06 08:31:48;;;;;;;14.40;6.00;;;;;;;45.26;22.05;99334.05;108226;1251;58974;-72
2023/08/06 08:34:18;;;;;;;11.40;6.00;;;;;;;45.46;22.11;99335.36;108272;1251;59006;-73
2023/08/06 08:36:47;;;;;;;9.20;6.20;;;;;;;45.62;21.83;99328.05;108227;1251;62909;-72
2023/08/06 08:39:14;;;;;;;18.70;6.30;;;;;;;45.56;21.88;99328.50;108149;1253;61521;-71
2023/08/06 08:41:40;;;;;;;13.20;6.00;;;;;;;45.42;21.59;99327.66;108196;1253;63967;-71
2023/08/06 08:44:10;;;;;;;13.60;6.00;;;;;;;45.53;21.65;99328.45;108138;1259;59212;-71
2023/08/06 08:46:40;;;;;;;12.90;6.00;;;;;;;45.63;21.47;99322.61;108125;1253;59622;-71
2023/08/06 08:49:07;;;;;;;;;;;;;;;45.93;21.00;99324.34;108159;1254;62896;-70
2023/08/06 08:51:35;;;;;;;30.40;6.90;;;;;;;45.97;21.17;99326.02;108195;1254;59483;-72
2023/08/06 08:54:04;;;;;;;26.50;6.80;;;;;;;45.94;21.35;99325.27;108150;1253;62441;-73
2023/08/06 08:56:31;;;;;;;15.10;6.60;;;;;;;45.81;21.71;99324.80;108155;1253;59835;-73
2023/08/06 08:58:58;;;;;;;10.60;6.20;;;;;;;45.88;21.65;99322.65;108227;1253;59532;-72
2023/08/06 09:01:25;;;;;;;16.50;6.80;;;;;;;46.04;21.55;99326.44;108204;1254;64264;-72
2023/08/06 09:03:52;;;;;;;8.70;6.00;;;;;;;45.80;21.52;99323.38;108017;1254;61755;-72
2023/08/06 09:06:19;;;;;;;21.80;8.60;;;;;;;45.89;21.53;99314.06;108235;1253;63824;-72
2023/08/06 09:09:01;;;;;;;10.80;6.00;;;;;;;46.14;21.79;99311.70;107962;1254;59490;-73
2023/08/06 09:11:27;;;;;;;11.70;6.20;;;;;;;46.47;21.23;99303.59;108060;1254;59236;-73
2023/08/06 09:13:54;;;;;;;10.20;5.80;;;;;;;46.68;21.05;99294.36;108065;1252;64420;-72
2023/08/06 09:16:21;;;;;;;24.00;6.60;;;;;;;46.89;20.79;99287.73;108087;1254;61777;-73
2023/08/06 09:18:47;;;;;;;12.60;6.10;;;;;;;47.00;20.63;99289.75;108042;1254;63736;-72
2023/08/06 09:21:17;;;;;;;9.80;5.30;;;;;;;46.83;20.63;99287.02;108088;1256;59106;-73
2023/08/06 09:23:44;;;;;;;9.80;5.70;;;;;;;46.74;20.87;99287.30;108202;1254;59604;-72
2023/08/06 09:26:13;;;;;;;10.40;5.90;;;;;;;46.70;20.84;99284.83;108272;1253;64069;-72
2023/08/06 09:28:43;;;;;;;8.40;5.70;;;;;;;46.41;20.80;99292.49;108277;1254;61741;-73
2023/08/06 09:31:10;;;;;;;12.40;5.80;;;;;;;46.09;21.18;99283.59;108287;1256;63858;-71
2023/08/06 09:33:37;;;;;;;8.70;6.00;;;;;;;46.04;21.38;99277.97;108263;1253;59179;-72
2023/08/06 09:36:09;;;;;;;13.50;6.50;;;;;;;45.90;21.55;99273.03;108273;1252;59464;-72
2023/08/06 09:38:40;;;;;;;9.60;6.10;;;;;;;45.85;21.40;99263.64;108262;1252;64235;-71
2023/08/06 09:41:10;;;;;;;6.80;5.60;;;;;;;45.80;21.78;99264.95;108111;1253;61487;-74
2023/08/06 09:43:41;;;;;;;12.10;6.00;;;;;;;45.98;21.60;99265.52;108246;1252;59643;-73
2023/08/06 09:46:16;;;;;;;16.20;6.30;;;;;;;46.54;21.06;99263.90;108271;1254;59759;-72
2023/08/06 09:48:46;;;;;;;17.90;7.30;;;;;;;46.83;20.86;99266.69;108239;1254;59643;-71
2023/08/06 09:51:13;;;;;;;;;;;;;;;47.09;20.65;99260.20;108273;1252;64411;-73
2023/08/06 09:53:40;;;;;;;9.70;5.80;;;;;;;47.11;20.30;99256.03;108279;1254;61627;-72
2023/08/06 09:56:06;;;;;;;16.10;6.00;;;;;;;47.26;20.23;99250.13;108163;1254;62582;-70
2023/08/06 09:58:34;;;;;;;14.10;6.00;;;;;;;47.07;20.64;99246.79;108073;1253;59282;-73
2023/08/06 10:01:00;;;;;;;12.90;6.20;;;;;;;46.72;21.14;99241.11;108283;1252;61213;-72
2023/08/06 10:03:27;;;;;;;12.50;5.60;;;;;;;46.66;21.35;99235.36;108221;1256;64233;-70
2023/08/06 10:05:55;;;;;;;18.90;6.30;;;;;;;46.61;21.31;99234.41;108239;1256;61690;-73
2023/08/06 10:08:22;;;;;;;11.50;6.30;;;;;;;46.42;21.74;99235.19;108294;1251;64344;-70
2023/08/06 10:10:49;;;;;;;13.00;6.00;;;;;;;46.57;21.71;99228.35;108229;1256;59477;-71
2023/08/06 10:13:16;;;;;;;7.70;5.90;;;;;;;46.92;21.39;99222.71;108316;1254;59516;-72
2023/08/06 10:15:42;;;;;;;11.30;6.00;;;;;;;47.07;21.11;99219.64;108134;1254;64433;-72
2023/08/06 10:18:09;;;;;;;13.90;6.40;;;;;;;47.29;20.80;99223.21;108128;1254;59234;-71
2023/08/06 10:20:35;;;;;;;16.90;5.90;;;;;;;47.27;20.96;99214.02;108255;1254;64435;-71
2023/08/06 10:23:06;;;;;;;17.50;6.20;;;;;;;47.47;20.43;99217.86;108272;1256;59609;-70
2023/08/06 10:25:34;;;;;;;12.60;6.20;;;;;;;47.58;20.07;99211.63;108311;1253;59630;-72
2023/08/06 10:28:07;;;;;;;17.90;5.70;;;;;;;47.21;20.38;99205.48;108261;1253;63072;-72
2023/08/06 10:30:33;;;;;;;10.70;6.10;;;;;;;47.58;20.26;99203.03;108191;1254;61556;-72
2023/08/06 10:33:01;;;;;;;18.50;6.60;;;;;;;47.65;20.02;99203.70;108195;1253;63722;-73
2023/08/06 10:35:32;;;;;;;12.40;5.30;;;;;;;47.27;20.02;99198.13;108273;1252;59652;-73
2023/08/06 10:38:03;;;;;;;17.50;6.10;;;;;;;47.19;20.00;99198.41;108194;1252;59618;-72
2023/08/06 10:40:30;;;;;;;15.90;5.70;;;;;;;47.24;20.19;99195.41;108249;1253;63176;-73
2023/08/06 10:43:01;;;;;;;10.10;5.80;;;;;;;46.93;20.88;99193.16;108218;1255;61484;-73
2023/08/06 10:45:28;;;;;;;7.80;5.80;;;;;;;46.87;20.86;99191.73;108226;1253;63717;-72
2023/08/06 10:47:58;;;;;;;10.60;5.30;;;;;;;47.29;19.95;99190.02;108216;1254;59545;-72
2023/08/06 10:50:24;;;;;;;10.50;6.00;;;;;;;47.05;19.90;99185.64;108163;1254;59102;-72
2023/08/06 10:52:51;;;;;;;14.30;5.40;;;;;;;46.84;20.05;99176.95;108281;1254;63203;-71
2023/08/06 10:55:27;;;;;;;14.40;5.60;;;;;;;47.18;20.30;99176.53;108164;1253;61448;-73
2023/08/06 10:57:54;;;;;;;11.20;5.20;;;;;;;46.86;20.56;99174.80;108235;1257;63808;-70
2023/08/06 11:00:23;;;;;;;13.10;5.80;;;;;;;46.77;20.49;99169.11;108206;1257;59628;-71
2023/08/06 11:02:51;;;;;;;12.90;6.10;;;;;;;46.67;20.53;99168.83;108280;1253;59682;-73
2023/08/06 11:05:18;;;;;;;12.30;5.70;;;;;;;46.62;20.56;99167.40;108243;1255;64123;-73
2023/08/06 11:07:45;;;;;;;12.80;6.00;;;;;;;46.74;20.58;99154.44;108226;1254;61551;-73
2023/08/06 11:10:12;;;;;;;7.30;5.20;;;;;;;47.08;20.34;99155.85;108241;1255;64207;-72
2023/08/06 11:12:39;;;;;;;11.40;5.60;;;;;;;47.24;20.18;99147.41;108223;1254;59612;-76
2023/08/06 11:15:06;;;;;;;20.40;6.50;;;;;;;47.35;19.97;99139.56;108160;1253;59544;-71
2023/08/06 11:17:33;;;;;;;23.60;6.40;;;;;;;47.47;20.18;99137.33;108222;1254;64337;-72
2023/08/06 11:20:03;;;;;;;14.20;5.90;;;;;;;47.62;20.64;99131.62;108198;1254;60350;-74
2023/08/06 11:22:31;;;;;;;9.20;5.20;;;;;;;47.66;20.43;99129.27;108188;1254;64117;-72
2023/08/06 11:24:58;;;;;;;13.30;5.20;;;;;;;47.33;20.05;99131.92;108067;1254;59771;-71
2023/08/06 11:27:25;;;;;;;11.00;5.40;;;;;;;47.04;20.51;99119.63;108091;1256;59103;-72
2023/08/06 11:29:52;;;;;;;10.40;5.40;;;;;;;47.19;20.70;99113.28;108138;1256;63244;-71
2023/08/06 11:32:18;;;;;;;15.80;5.80;;;;;;;47.77;20.73;99108.48;108103;1254;59326;-71
2023/08/06 11:34:45;;;;;;;15.20;5.30;;;;;;;47.72;20.73;99108.23;108114;1256;64455;-72
2023/08/06 11:37:12;;;;;;;10.90;5.40;;;;;;;47.54;20.56;99105.86;108178;1255;60127;-72
2023/08/06 11:39:38;;;;;;;14.20;5.40;;;;;;;47.73;20.02;99106.02;108112;1254;59528;-71
2023/08/06 11:42:06;;;;;;;11.70;4.70;;;;;;;47.57;19.63;99105.66;108156;1254;62793;-71
2023/08/06 11:44:36;;;;;;;13.90;4.90;;;;;;;47.55;19.77;99104.21;108190;1254;61526;-71
2023/08/06 11:47:05;;;;;;;14.10;5.20;;;;;;;47.06;20.04;99094.43;108147;1254;63947;-71
2023/08/06 11:49:48;;;;;;;17.20;5.10;;;;;;;47.03;20.45;99095.02;108262;1257;60324;-72
2023/08/06 11:52:25;;;;;;;15.30;5.30;;;;;;;47.03;20.27;99094.30;108261;1252;60316;-71